createdAt,value
2019-05-13T00:00:23.403Z,8.40
2019-05-13T00:02:54.442Z,8.40
2019-05-13T00:05:35.341Z,8.30
2019-05-13T00:08:06.170Z,8.30
2019-05-13T00:10:36.503Z,8.30
2019-05-13T00:13:08.431Z,8.30
2019-05-13T00:15:48.311Z,8.30
2019-05-13T00:18:23.701Z,8.20
2019-05-13T00:20:54.903Z,8.20
2019-05-13T00:23:24.023Z,8.20
2019-05-13T00:25:56.037Z,8.20
2019-05-13T00:28:25.813Z,8.10
2019-05-13T00:30:55.951Z,8.10
2019-05-13T00:33:30.211Z,8.10
2019-05-13T00:36:00.350Z,8.10
2019-05-13T00:38:44.151Z,8.10
2019-05-13T00:41:15.688Z,8.10
2019-05-13T00:43:46.581Z,8.10
2019-05-13T00:46:23.474Z,8.00
2019-05-13T00:48:54.768Z,8.00
2019-05-13T00:51:24.639Z,8.00
2019-05-13T00:53:54.742Z,8.00
2019-05-13T00:56:24.951Z,8.00
2019-05-13T00:58:55.100Z,7.90
2019-05-13T01:01:26.821Z,7.90
2019-05-13T01:04:03.747Z,7.90
2019-05-13T01:06:34.066Z,7.90
2019-05-13T01:09:05.743Z,7.90
2019-05-13T01:11:36.536Z,7.90
2019-05-13T01:14:07.771Z,7.90
2019-05-13T01:16:44.283Z,7.90
2019-05-13T01:19:18.986Z,7.90
2019-05-13T01:21:49.428Z,7.90
2019-05-13T01:24:24.420Z,7.90
2019-05-13T01:26:56.306Z,7.90
2019-05-13T01:29:30.157Z,7.90
2019-05-13T01:31:59.797Z,7.90
2019-05-13T01:34:29.487Z,8.00
2019-05-13T01:36:59.036Z,8.00
2019-05-13T01:39:28.339Z,8.00
2019-05-13T01:42:03.670Z,8.00
2019-05-13T01:44:33.795Z,8.00
2019-05-13T01:47:04.465Z,8.00
2019-05-13T01:49:34.147Z,8.00
2019-05-13T01:52:04.889Z,8.00
2019-05-13T01:54:34.565Z,8.00
2019-05-13T01:57:04.712Z,8.00
2019-05-13T01:59:34.833Z,8.00
2019-05-13T02:02:05.217Z,8.00
2019-05-13T02:04:35.421Z,8.10
2019-05-13T02:07:04.641Z,8.10
2019-05-13T02:09:36.641Z,8.10
2019-05-13T02:12:06.146Z,8.10
2019-05-13T02:14:36.772Z,8.10
2019-05-13T02:17:07.181Z,8.20
2019-05-13T02:19:36.940Z,8.10
2019-05-13T02:22:07.005Z,8.10
2019-05-13T02:24:36.763Z,8.10
2019-05-13T02:27:08.337Z,8.10
2019-05-13T02:29:38.794Z,8.10
2019-05-13T02:32:08.004Z,8.10
2019-05-13T02:34:37.782Z,8.00
2019-05-13T02:37:07.690Z,8.00
2019-05-13T02:39:48.709Z,8.00
2019-05-13T02:42:22.832Z,8.00
2019-05-13T02:44:52.960Z,8.00
2019-05-13T02:47:23.305Z,8.00
2019-05-13T02:49:54.359Z,8.00
2019-05-13T02:52:25.564Z,8.00
2019-05-13T02:54:55.533Z,7.90
2019-05-13T02:57:24.611Z,7.90
2019-05-13T02:59:53.935Z,7.90
2019-05-13T03:02:23.234Z,7.90
2019-05-13T03:04:53.552Z,7.90
2019-05-13T03:07:25.651Z,7.90
2019-05-13T03:09:55.353Z,7.90
2019-05-13T03:12:25.091Z,7.90
2019-05-13T03:14:54.562Z,7.90
2019-05-13T03:17:32.393Z,7.90
2019-05-13T03:20:04.117Z,7.90
2019-05-13T03:22:34.170Z,7.90
2019-05-13T03:25:03.947Z,8.00
2019-05-13T03:27:34.119Z,8.00
2019-05-13T03:30:04.471Z,8.00
2019-05-13T03:32:42.945Z,8.00
2019-05-13T03:35:08.278Z,8.00
2019-05-13T03:37:42.102Z,8.10
2019-05-13T03:40:13.357Z,8.10
2019-05-13T03:42:46.135Z,8.20
2019-05-13T03:45:15.963Z,8.20
2019-05-13T03:47:52.916Z,8.20
2019-05-13T03:50:22.686Z,8.20
2019-05-13T03:52:53.469Z,8.20
2019-05-13T03:55:23.881Z,8.20
2019-05-13T03:57:54.657Z,8.20
2019-05-13T04:00:24.583Z,8.30
2019-05-13T04:02:54.865Z,8.30
2019-05-13T04:05:27.813Z,8.40
2019-05-13T04:07:58.820Z,8.50
2019-05-13T04:10:33.388Z,8.50
2019-05-13T04:13:03.779Z,8.50
2019-05-13T04:15:34.122Z,8.50
2019-05-13T04:18:03.536Z,8.50
2019-05-13T04:20:42.616Z,8.50
2019-05-13T04:23:19.120Z,8.50
2019-05-13T04:25:53.727Z,8.50
2019-05-13T04:28:22.358Z,8.60
2019-05-13T04:30:53.977Z,8.60
2019-05-13T04:33:26.129Z,8.60
2019-05-13T04:35:58.172Z,8.70
2019-05-13T04:38:32.990Z,8.70
2019-05-13T04:41:04.090Z,8.70
2019-05-13T04:43:42.967Z,8.80
2019-05-13T04:46:14.105Z,8.80
2019-05-13T04:48:44.057Z,8.80
2019-05-13T04:51:14.658Z,8.80
2019-05-13T04:53:47.259Z,8.80
2019-05-13T04:56:22.400Z,8.90
2019-05-13T04:58:53.061Z,8.90
2019-05-13T05:02:13.265Z,8.90
2019-05-13T05:04:59.302Z,9.00
2019-05-13T05:08:11.806Z,9.00
2019-05-13T05:11:52.958Z,9.10
2019-05-13T05:14:41.800Z,9.10
2019-05-13T05:17:46.500Z,9.10
2019-05-13T05:20:46.518Z,9.20
2019-05-13T05:23:53.424Z,9.20
2019-05-13T05:27:07.296Z,9.30
2019-05-13T05:30:11.103Z,9.30
2019-05-13T05:33:31.910Z,9.40
2019-05-13T05:36:36.808Z,9.40
2019-05-13T05:39:22.760Z,9.50
2019-05-13T05:41:57.303Z,9.50
2019-05-13T05:44:35.941Z,9.60
2019-05-13T05:47:16.486Z,9.70
2019-05-13T05:50:13.241Z,9.70
2019-05-13T05:52:51.451Z,9.80
2019-05-13T05:58:49.506Z,9.90
2019-05-13T06:01:37.433Z,9.90
2019-05-13T06:04:52.097Z,9.90
2019-05-13T06:07:36.967Z,10.00
2019-05-13T06:10:17.079Z,10.00
2019-05-13T06:12:56.753Z,10.10
2019-05-13T06:15:35.169Z,10.20
2019-05-13T06:18:11.709Z,10.20
2019-05-13T06:20:55.994Z,10.30
2019-05-13T06:23:31.263Z,10.30
2019-05-13T06:26:35.279Z,10.40
2019-05-13T06:31:57.184Z,10.50
2019-05-13T06:50:23.268Z,10.90
2019-05-13T07:04:55.426Z,11.20
2019-05-13T07:26:12.691Z,11.80
2019-05-13T07:46:13.380Z,12.10
2019-05-13T07:53:05.472Z,12.10
2019-05-13T07:56:12.635Z,12.20
2019-05-13T08:02:37.846Z,12.30
2019-05-13T08:06:22.058Z,12.40
2019-05-13T08:10:00.922Z,12.40
2019-05-13T08:13:44.815Z,12.40
2019-05-13T09:54:34.390Z,13.70
2019-05-13T10:04:53.173Z,13.80
2019-05-13T10:07:23.108Z,13.90
2019-05-13T11:29:02.633Z,13.20
2019-05-13T11:32:23.456Z,13.30
2019-05-13T11:35:16.147Z,13.30
2019-05-13T11:38:12.058Z,13.30
2019-05-13T11:41:42.699Z,13.40
2019-05-13T11:48:02.630Z,13.40
2019-05-13T11:51:09.176Z,13.50
2019-05-13T11:54:14.269Z,13.50
2019-05-13T11:59:46.449Z,13.60
2019-05-13T12:02:50.949Z,13.50
2019-05-13T12:05:26.116Z,13.50
2019-05-13T12:08:50.970Z,13.50
2019-05-13T12:19:03.451Z,13.60
2019-05-13T12:32:51.908Z,13.30
2019-05-13T12:35:53.785Z,13.20
2019-05-13T12:56:08.324Z,12.90
2019-05-13T13:11:12.629Z,12.90
2019-05-13T13:14:57.086Z,12.90
2019-05-13T13:47:03.677Z,13.00
2019-05-13T13:53:44.645Z,12.90
2019-05-13T13:57:03.688Z,12.80
2019-05-13T14:00:32.967Z,12.70
2019-05-13T14:03:21.029Z,12.70
2019-05-13T14:07:02.788Z,13.60
2019-05-13T14:07:34.461Z,12.70
2019-05-13T15:12:06.765Z,19.50
2019-05-13T15:14:55.815Z,20.20
2019-05-13T15:17:52.104Z,20.80
2019-05-13T15:20:22.660Z,21.40
2019-05-13T15:23:03.390Z,22.20
2019-05-13T15:25:35.082Z,23.00
2019-05-13T15:28:32.219Z,23.40
2019-05-13T15:30:54.019Z,23.40
2019-05-13T15:33:25.763Z,23.30
2019-05-13T15:35:57.518Z,23.40
2019-05-13T15:38:41.444Z,23.20
2019-05-13T15:41:15.718Z,23.10
2019-05-13T15:43:44.578Z,23.20
2019-05-13T15:46:14.914Z,23.40
2019-05-13T15:48:44.801Z,23.90
2019-05-13T15:51:22.143Z,23.90
2019-05-13T15:54:15.538Z,23.80
2019-05-13T15:56:49.683Z,23.90
2019-05-13T15:59:21.603Z,24.10
2019-05-13T16:01:55.370Z,24.20
2019-05-13T16:04:48.789Z,24.00
2019-05-13T16:07:15.262Z,23.70
2019-05-13T16:09:52.640Z,23.40
2019-05-13T16:12:26.617Z,23.40
2019-05-13T16:15:01.730Z,23.60
2019-05-13T16:17:41.244Z,23.90
2019-05-13T16:20:16.603Z,24.20
2019-05-13T16:22:48.771Z,24.00
2019-05-13T16:25:24.432Z,22.70
2019-05-13T16:28:01.531Z,21.30
2019-05-13T16:30:52.246Z,20.00
2019-05-13T16:33:41.755Z,19.00
2019-05-13T16:39:02.589Z,17.80
2019-05-13T16:41:38.683Z,17.50
2019-05-13T16:44:12.706Z,17.20
2019-05-13T16:47:01.849Z,16.80
2019-05-13T16:49:41.306Z,16.40
2019-05-13T16:52:18.692Z,16.00
2019-05-13T16:54:53.609Z,15.60
2019-05-13T17:00:51.616Z,14.80
2019-05-13T17:03:31.926Z,14.30
2019-05-13T17:06:29.374Z,14.00
2019-05-13T17:09:15.887Z,13.80
2019-05-13T17:23:03.694Z,12.90
2019-05-13T17:32:51.614Z,12.40
2019-05-13T17:35:22.894Z,12.20
2019-05-13T17:37:51.998Z,12.10
2019-05-13T17:40:22.519Z,12.00
2019-05-13T17:43:21.364Z,12.00
2019-05-13T17:45:53.800Z,11.90
2019-05-13T17:48:53.418Z,11.90
2019-05-13T17:55:33.946Z,11.80
2019-05-13T18:58:25.361Z,10.50
2019-05-13T19:01:01.343Z,10.40
2019-05-13T19:07:25.741Z,10.30
2019-05-13T19:10:05.305Z,10.30
2019-05-13T20:07:52.295Z,10.00
2019-05-13T20:10:22.703Z,10.00
2019-05-13T20:13:01.709Z,9.90
2019-05-13T20:15:41.336Z,9.90
2019-05-13T20:34:08.733Z,9.70
2019-05-13T20:36:44.339Z,9.70
2019-05-13T20:39:17.372Z,9.60
2019-05-13T20:41:55.856Z,9.60
2019-05-13T20:44:24.569Z,9.60
2019-05-13T20:46:56.013Z,9.60
2019-05-13T20:49:31.012Z,9.70
2019-05-13T20:52:08.366Z,9.70
2019-05-13T20:54:41.710Z,9.70
2019-05-13T20:57:15.842Z,9.60
2019-05-13T20:59:46.558Z,9.60
2019-05-13T21:02:23.071Z,9.60
2019-05-13T21:04:56.366Z,9.50
2019-05-13T21:07:28.713Z,9.40
2019-05-13T21:09:58.939Z,9.30
2019-05-13T21:12:31.375Z,9.20
2019-05-13T21:15:04.522Z,9.20
2019-05-13T21:17:35.172Z,9.10
2019-05-13T21:23:52.231Z,9.00
2019-05-13T21:26:22.482Z,8.90
2019-05-13T21:28:53.863Z,8.90
2019-05-13T21:31:25.753Z,8.80
2019-05-13T21:33:57.159Z,8.80
2019-05-13T21:36:27.809Z,8.70
2019-05-13T21:38:57.598Z,8.70
2019-05-13T21:41:32.633Z,8.70
2019-05-13T21:44:12.696Z,8.70
2019-05-13T21:46:45.966Z,8.70
2019-05-13T21:49:22.073Z,8.70
2019-05-13T21:51:49.466Z,8.70
2019-05-13T21:54:20.831Z,8.70
2019-05-13T21:56:52.652Z,8.70
2019-05-13T21:59:28.085Z,8.70
2019-05-13T22:02:13.767Z,8.60
2019-05-13T22:04:43.622Z,8.60
2019-05-13T22:07:13.089Z,8.60
2019-05-13T22:33:13.681Z,8.30
2019-05-13T22:39:52.639Z,8.30
2019-05-13T22:42:28.303Z,8.20
2019-05-13T22:48:02.608Z,8.10
2019-05-13T22:50:45.263Z,8.10
2019-05-13T22:53:52.317Z,8.00
2019-05-13T22:59:56.193Z,7.90
2019-05-13T23:03:16.474Z,7.90
2019-05-13T23:17:34.879Z,7.70
2019-05-13T23:38:41.397Z,7.70
2019-05-13T23:41:52.598Z,7.70
2019-05-13T23:45:27.445Z,7.70
2019-05-13T23:49:01.513Z,7.80
